createdAt,value
2023-05-19T00:01:21.126Z,7.20
2023-05-19T00:03:57.845Z,5.00
2023-05-19T00:06:32.885Z,5.95
2023-05-19T00:09:08.168Z,7.13
2023-05-19T00:11:42.333Z,5.50
2023-05-19T00:14:17.895Z,6.25
2023-05-19T00:16:52.113Z,5.53
2023-05-19T00:19:32.270Z,5.60
2023-05-19T00:22:06.323Z,5.40
2023-05-19T00:24:39.901Z,5.80
2023-05-19T00:27:13.455Z,7.55
2023-05-19T00:29:48.746Z,5.72
2023-05-19T00:32:22.451Z,7.63
2023-05-19T00:34:56.042Z,7.63
2023-05-19T00:37:29.639Z,8.07
2023-05-19T00:40:05.665Z,7.22
2023-05-19T00:42:40.093Z,7.38
2023-05-19T00:45:15.217Z,4.97
2023-05-19T00:47:49.681Z,7.55
2023-05-19T00:50:24.236Z,8.23
2023-05-19T00:52:58.024Z,5.22
2023-05-19T00:55:34.728Z,6.07
2023-05-19T00:58:10.716Z,4.78
2023-05-19T01:00:45.857Z,6.45
2023-05-19T01:03:20.874Z,5.05
2023-05-19T01:05:54.861Z,4.32
2023-05-19T01:08:29.055Z,6.10
2023-05-19T01:11:02.809Z,5.22
2023-05-19T01:13:38.596Z,6.53
2023-05-19T01:16:23.755Z,5.00
2023-05-19T01:19:04.009Z,4.28
2023-05-19T01:21:57.941Z,5.20
2023-05-19T01:24:58.259Z,6.72
2023-05-19T01:28:00.861Z,4.65
2023-05-19T01:30:39.128Z,6.35
2023-05-19T01:33:15.320Z,6.68
2023-05-19T01:35:49.760Z,5.47
2023-05-19T01:38:26.168Z,4.30
2023-05-19T01:41:00.169Z,4.18
2023-05-19T01:43:34.942Z,4.63
2023-05-19T01:46:10.337Z,4.25
2023-05-19T01:48:45.833Z,4.15
2023-05-19T01:51:20.430Z,2.72
2023-05-19T01:53:54.063Z,4.80
2023-05-19T01:56:38.111Z,4.55
2023-05-19T01:59:24.436Z,5.47
2023-05-19T02:02:02.019Z,4.68
2023-05-19T02:04:41.310Z,8.75
2023-05-19T02:07:21.542Z,5.15
2023-05-19T02:10:04.150Z,6.90
2023-05-19T02:12:40.616Z,7.45
2023-05-19T02:15:18.123Z,4.25
2023-05-19T02:17:54.680Z,3.70
2023-05-19T02:20:29.489Z,7.25
2023-05-19T02:23:03.048Z,2.95
2023-05-19T02:25:36.663Z,5.30
2023-05-19T02:28:10.272Z,4.47
2023-05-19T02:30:43.984Z,5.65
2023-05-19T02:33:19.450Z,7.47
2023-05-19T02:35:53.023Z,6.50
2023-05-19T02:38:26.877Z,6.75
2023-05-19T02:41:00.801Z,7.18
2023-05-19T02:43:34.349Z,6.93
2023-05-19T02:46:08.009Z,7.80
2023-05-19T02:48:43.640Z,7.47
2023-05-19T02:51:17.226Z,11.25
2023-05-19T02:53:51.045Z,13.90
2023-05-19T02:56:24.662Z,5.97
2023-05-19T02:58:58.569Z,9.32
2023-05-19T03:01:32.750Z,8.02
2023-05-19T03:04:07.797Z,5.93
2023-05-19T03:06:42.285Z,7.63
2023-05-19T03:09:15.890Z,5.95
2023-05-19T03:11:49.464Z,6.15
2023-05-19T03:14:24.618Z,6.28
2023-05-19T03:16:59.930Z,6.68
2023-05-19T03:19:35.038Z,4.68
2023-05-19T03:22:08.725Z,7.10
2023-05-19T03:24:42.260Z,4.93
2023-05-19T03:27:16.629Z,4.38
2023-05-19T03:29:50.246Z,5.80
2023-05-19T03:32:23.917Z,8.27
2023-05-19T03:34:59.064Z,4.90
2023-05-19T03:37:33.617Z,9.35
2023-05-19T03:40:08.889Z,5.78
2023-05-19T03:42:44.371Z,5.20
2023-05-19T03:45:18.003Z,4.13
2023-05-19T03:47:54.670Z,5.45
2023-05-19T03:50:51.227Z,7.22
2023-05-19T03:53:30.381Z,5.70
2023-05-19T03:56:03.993Z,7.53
2023-05-19T03:58:40.850Z,4.95
2023-05-19T04:01:14.487Z,6.97
2023-05-19T04:03:48.052Z,5.07
2023-05-19T04:06:23.462Z,6.18
2023-05-19T04:08:57.040Z,3.05
2023-05-19T04:11:30.572Z,3.10
2023-05-19T04:14:04.777Z,4.10
2023-05-19T04:16:38.775Z,4.07
2023-05-19T04:19:12.466Z,5.15
2023-05-19T04:21:47.443Z,4.32
2023-05-19T04:24:21.223Z,4.95
2023-05-19T04:26:54.908Z,6.80
2023-05-19T04:29:29.600Z,5.90
2023-05-19T04:32:06.876Z,4.95
2023-05-19T04:34:45.369Z,6.53
2023-05-19T04:37:25.890Z,6.55
2023-05-19T04:39:59.626Z,10.07
2023-05-19T04:42:34.307Z,6.72
2023-05-19T04:45:12.407Z,6.80
2023-05-19T04:47:48.417Z,6.70
2023-05-19T04:50:23.388Z,10.52
2023-05-19T04:52:59.368Z,9.52
2023-05-19T04:55:34.261Z,9.63
2023-05-19T04:58:08.142Z,8.82
2023-05-19T05:00:41.803Z,6.70
2023-05-19T05:03:16.507Z,5.00
2023-05-19T05:05:50.244Z,3.88
2023-05-19T05:08:25.237Z,4.60
2023-05-19T05:11:00.785Z,4.40
2023-05-19T05:13:34.969Z,4.30
2023-05-19T05:16:09.828Z,8.50
2023-05-19T05:18:45.040Z,4.20
2023-05-19T05:21:19.662Z,3.60
2023-05-19T05:23:55.687Z,3.55
2023-05-19T05:26:35.688Z,3.83
2023-05-19T05:29:11.461Z,5.78
2023-05-19T05:31:45.162Z,2.60
2023-05-19T05:34:19.196Z,2.65
2023-05-19T05:36:52.856Z,2.45
2023-05-19T05:39:28.861Z,2.60
2023-05-19T05:42:02.501Z,3.22
2023-05-19T05:44:36.885Z,2.33
2023-05-19T05:47:13.061Z,3.08
2023-05-19T05:49:48.268Z,4.07
2023-05-19T05:52:23.637Z,4.20
2023-05-19T05:55:00.493Z,3.78
2023-05-19T05:57:36.684Z,2.08
2023-05-19T06:00:15.708Z,1.90
2023-05-19T06:02:51.646Z,3.85
2023-05-19T06:05:26.537Z,1.75
2023-05-19T06:08:04.635Z,3.65
2023-05-19T06:10:41.801Z,4.75
2023-05-19T06:13:22.310Z,1.08
2023-05-19T06:15:55.983Z,1.92
2023-05-19T06:18:34.288Z,1.35
2023-05-19T06:21:10.285Z,1.23
2023-05-19T06:23:44.670Z,2.30
2023-05-19T06:26:20.100Z,1.55
2023-05-19T06:28:53.707Z,1.20
2023-05-19T06:31:28.257Z,1.25
2023-05-19T06:34:05.151Z,1.38
2023-05-19T06:36:40.497Z,4.93
2023-05-19T06:39:14.807Z,1.15
2023-05-19T06:41:49.967Z,1.42
2023-05-19T06:44:43.634Z,2.20
2023-05-19T06:47:19.199Z,1.02
2023-05-19T06:49:55.527Z,2.90
2023-05-19T06:52:32.478Z,2.97
2023-05-19T06:55:08.963Z,3.17
2023-05-19T06:57:46.107Z,1.42
2023-05-19T07:00:22.924Z,1.50
2023-05-19T07:02:58.958Z,1.30
2023-05-19T07:05:32.595Z,1.55
2023-05-19T07:08:08.407Z,1.98
2023-05-19T07:10:42.891Z,1.38
2023-05-19T07:13:21.063Z,1.27
2023-05-19T07:15:55.993Z,1.73
2023-05-19T07:18:31.946Z,2.28
2023-05-19T07:21:07.340Z,3.42
2023-05-19T07:23:41.198Z,1.17
2023-05-19T07:26:14.782Z,1.77
2023-05-19T07:28:49.690Z,2.17
2023-05-19T07:31:23.354Z,4.35
2023-05-19T07:33:58.146Z,1.77
2023-05-19T07:36:31.849Z,1.67
2023-05-19T07:39:05.563Z,0.90
2023-05-19T07:41:39.209Z,1.35
2023-05-19T07:44:14.557Z,2.67
2023-05-19T07:46:48.148Z,2.97
2023-05-19T07:49:21.964Z,1.92
2023-05-19T07:51:55.650Z,3.80
2023-05-19T07:54:29.398Z,2.45
2023-05-19T07:57:02.984Z,3.92
2023-05-19T07:59:37.946Z,1.42
2023-05-19T08:02:11.532Z,3.05
2023-05-19T08:04:45.181Z,2.10
2023-05-19T08:07:18.831Z,2.50
2023-05-19T08:09:52.398Z,1.92
2023-05-19T08:12:26.050Z,3.10
2023-05-19T08:15:01.844Z,2.88
2023-05-19T08:17:35.890Z,2.03
2023-05-19T08:20:12.238Z,3.80
2023-05-19T08:22:45.914Z,3.25
2023-05-19T08:25:19.942Z,3.53
2023-05-19T08:27:53.600Z,5.15
2023-05-19T08:30:28.715Z,2.47
2023-05-19T08:33:02.512Z,2.60
2023-05-19T08:35:36.218Z,1.35
2023-05-19T08:38:09.947Z,3.35
2023-05-19T08:40:44.654Z,6.25
2023-05-19T08:43:18.400Z,3.17
2023-05-19T08:45:54.633Z,1.58
2023-05-19T08:48:31.300Z,1.98
2023-05-19T08:51:16.307Z,2.00
2023-05-19T08:53:52.986Z,3.15
2023-05-19T08:56:27.031Z,2.40
2023-05-19T08:59:01.131Z,3.88
2023-05-19T09:04:17.040Z,2.25
2023-05-19T09:06:51.607Z,3.33
2023-05-19T09:09:25.288Z,3.30
2023-05-19T09:11:59.624Z,2.30
2023-05-19T09:14:34.801Z,4.35
2023-05-19T09:17:09.966Z,1.60
2023-05-19T09:19:47.306Z,1.75
2023-05-19T09:22:21.322Z,2.75
2023-05-19T09:24:55.060Z,4.85
2023-05-19T09:27:28.665Z,2.78
2023-05-19T09:30:10.457Z,2.85
2023-05-19T09:32:45.673Z,1.43
2023-05-19T09:35:20.697Z,2.55
2023-05-19T09:37:54.454Z,1.77
2023-05-19T09:40:30.069Z,4.72
2023-05-19T09:43:09.466Z,1.60
2023-05-19T09:45:45.962Z,1.92
2023-05-19T09:48:21.082Z,3.10
2023-05-19T09:50:55.439Z,2.58
2023-05-19T09:53:32.623Z,2.92
2023-05-19T09:56:07.402Z,4.20
2023-05-19T09:58:43.886Z,2.30
2023-05-19T10:01:18.162Z,2.08
2023-05-19T10:03:54.778Z,1.52
2023-05-19T10:06:28.503Z,4.82
2023-05-19T10:09:02.962Z,2.58
2023-05-19T10:11:36.892Z,1.75
2023-05-19T10:14:11.121Z,4.68
2023-05-19T10:16:45.694Z,5.85
2023-05-19T10:19:22.940Z,1.95
2023-05-19T10:21:57.174Z,4.72
2023-05-19T10:24:30.834Z,2.45
2023-05-19T10:27:07.318Z,4.75
2023-05-19T10:29:45.768Z,2.58
2023-05-19T10:32:24.277Z,2.20
2023-05-19T10:35:34.420Z,3.50
2023-05-19T10:38:30.071Z,3.17
2023-05-19T10:41:11.672Z,1.90
2023-05-19T10:43:57.250Z,3.70
2023-05-19T10:46:31.853Z,2.40
2023-05-19T10:49:05.482Z,3.22
2023-05-19T10:51:40.617Z,2.42
2023-05-19T10:54:16.619Z,3.30
2023-05-19T10:56:50.657Z,3.00
2023-05-19T10:59:34.502Z,2.85
2023-05-19T11:02:09.796Z,2.30
2023-05-19T11:04:51.967Z,2.58
2023-05-19T11:07:28.150Z,5.50
2023-05-19T11:10:06.477Z,2.50
2023-05-19T11:12:44.769Z,5.18
2023-05-19T11:15:18.508Z,3.92
2023-05-19T11:17:52.312Z,1.45
2023-05-19T11:20:27.355Z,1.80
2023-05-19T11:23:09.154Z,4.15
2023-05-19T11:25:48.173Z,2.00
2023-05-19T11:28:26.188Z,1.88
2023-05-19T11:31:01.137Z,2.63
2023-05-19T11:33:34.987Z,2.00
2023-05-19T11:36:10.029Z,2.08
2023-05-19T11:38:46.660Z,2.38
2023-05-19T11:41:21.013Z,2.25
2023-05-19T11:43:54.945Z,4.43
2023-05-19T11:46:29.254Z,4.85
2023-05-19T11:49:03.415Z,2.45
2023-05-19T11:51:38.418Z,6.05
2023-05-19T11:54:14.366Z,1.60
2023-05-19T11:56:48.519Z,4.07
2023-05-19T11:59:32.759Z,1.90
2023-05-19T12:02:18.084Z,2.00
2023-05-19T12:04:52.209Z,2.42
2023-05-19T12:07:26.557Z,2.55
2023-05-19T12:10:01.782Z,3.38
2023-05-19T12:12:36.523Z,2.30
2023-05-19T12:15:11.705Z,2.78
2023-05-19T12:17:46.672Z,3.25
2023-05-19T12:20:21.017Z,2.35
2023-05-19T12:22:56.295Z,2.20
2023-05-19T12:25:32.619Z,4.75
2023-05-19T12:28:06.798Z,2.90
2023-05-19T12:30:41.512Z,3.13
2023-05-19T12:33:16.751Z,5.53
2023-05-19T12:35:50.972Z,1.95
2023-05-19T12:38:24.628Z,2.33
2023-05-19T12:41:01.493Z,3.78
2023-05-19T12:43:35.358Z,2.72
2023-05-19T12:46:12.700Z,3.03
2023-05-19T12:48:47.436Z,2.72
2023-05-19T12:51:21.347Z,4.05
2023-05-19T12:53:55.511Z,2.80
2023-05-19T12:56:30.587Z,3.13
2023-05-19T12:59:04.250Z,2.72
2023-05-19T13:01:38.199Z,2.35
2023-05-19T13:04:12.157Z,2.38
2023-05-19T13:06:47.477Z,4.28
2023-05-19T13:09:21.449Z,2.22
2023-05-19T13:11:56.451Z,4.22
2023-05-19T13:14:30.018Z,5.40
2023-05-19T13:17:03.622Z,4.10
2023-05-19T13:19:37.292Z,2.45
2023-05-19T13:22:12.114Z,2.88
2023-05-19T13:24:45.699Z,2.85
2023-05-19T13:27:20.737Z,5.05
2023-05-19T13:29:54.402Z,4.50
2023-05-19T13:32:28.030Z,3.40
2023-05-19T13:35:02.346Z,3.33
2023-05-19T13:37:36.075Z,2.53
2023-05-19T13:40:10.663Z,9.77
2023-05-19T13:42:45.875Z,6.20
2023-05-19T13:45:19.495Z,2.35
2023-05-19T13:47:53.327Z,3.53
2023-05-19T13:50:26.903Z,5.38
2023-05-19T13:53:00.552Z,3.30
2023-05-19T13:55:34.441Z,21.77
2023-05-19T13:58:11.093Z,4.65
2023-05-19T14:00:44.810Z,4.70
2023-05-19T14:03:19.883Z,7.68
2023-05-19T14:05:53.564Z,6.05
2023-05-19T14:08:27.279Z,5.93
2023-05-19T14:11:00.851Z,4.03
2023-05-19T14:13:38.363Z,4.65
2023-05-19T14:16:15.461Z,5.45
2023-05-19T14:19:07.172Z,4.28
2023-05-19T14:21:41.026Z,12.25
2023-05-19T14:24:14.594Z,4.00
2023-05-19T14:26:48.187Z,4.25
2023-05-19T14:29:23.444Z,4.18
2023-05-19T14:31:57.235Z,7.63
2023-05-19T14:34:30.961Z,5.22
2023-05-19T14:37:04.552Z,5.15
2023-05-19T14:39:38.128Z,3.75
2023-05-19T14:42:12.786Z,8.10
2023-05-19T14:44:47.780Z,5.10
2023-05-19T14:47:21.483Z,6.68
2023-05-19T14:49:55.177Z,6.63
2023-05-19T14:52:28.805Z,4.55
2023-05-19T14:55:02.388Z,4.22
2023-05-19T14:57:36.153Z,9.57
2023-05-19T15:00:12.205Z,6.55
2023-05-19T15:02:46.201Z,7.05
2023-05-19T15:05:20.011Z,6.30
2023-05-19T15:07:53.646Z,8.43
2023-05-19T15:10:27.463Z,7.32
2023-05-19T15:13:01.781Z,6.47
2023-05-19T15:15:36.775Z,6.90
2023-05-19T15:18:11.499Z,5.68
2023-05-19T15:20:46.519Z,7.55
2023-05-19T15:23:20.158Z,16.98
2023-05-19T15:25:54.193Z,6.38
2023-05-19T15:28:28.053Z,7.45
2023-05-19T15:31:03.114Z,6.95
2023-05-19T15:33:36.884Z,6.80
2023-05-19T15:36:16.277Z,7.90
2023-05-19T15:38:49.893Z,6.47
2023-05-19T15:41:23.518Z,5.75
2023-05-19T15:43:57.129Z,11.05
2023-05-19T15:46:32.164Z,8.40
2023-05-19T15:49:05.908Z,7.95
2023-05-19T15:51:39.484Z,7.15
2023-05-19T15:54:13.061Z,7.53
2023-05-19T15:56:46.602Z,9.52
2023-05-19T15:59:20.480Z,9.10
2023-05-19T16:01:55.595Z,9.45
2023-05-19T16:04:29.341Z,7.65
2023-05-19T16:07:03.050Z,7.47
2023-05-19T16:09:36.649Z,5.57
2023-05-19T16:12:10.241Z,6.15
2023-05-19T16:14:43.788Z,6.70
2023-05-19T16:17:19.013Z,8.52
2023-05-19T16:19:52.746Z,12.88
2023-05-19T16:22:26.295Z,8.57
2023-05-19T16:25:00.260Z,7.75
2023-05-19T16:27:33.961Z,9.32
2023-05-19T16:30:08.996Z,13.23
2023-05-19T16:32:44.247Z,18.48
2023-05-19T16:35:18.097Z,8.68
2023-05-19T16:37:51.723Z,11.57
2023-05-19T16:40:25.400Z,8.52
2023-05-19T16:42:59.024Z,9.27
2023-05-19T16:45:32.690Z,7.40
2023-05-19T16:48:08.112Z,7.55
2023-05-19T16:50:41.743Z,9.52
2023-05-19T16:53:15.628Z,12.93
2023-05-19T16:55:49.672Z,13.38
2023-05-19T16:58:23.229Z,8.95
2023-05-19T17:00:57.781Z,17.88
2023-05-19T17:03:32.874Z,9.60
2023-05-19T17:06:08.388Z,7.93
2023-05-19T17:08:41.935Z,9.60
2023-05-19T17:11:15.601Z,9.30
2023-05-19T17:13:49.175Z,10.45
2023-05-19T17:16:23.515Z,10.82
2023-05-19T17:18:58.519Z,11.35
2023-05-19T17:21:33.740Z,12.80
2023-05-19T17:24:08.019Z,13.50
2023-05-19T17:26:41.819Z,15.65
2023-05-19T17:29:15.437Z,14.77
2023-05-19T17:31:49.171Z,27.50
2023-05-19T17:34:24.445Z,12.55
2023-05-19T17:36:58.026Z,11.48
2023-05-19T17:39:31.550Z,9.70
2023-05-19T17:42:06.003Z,12.07
2023-05-19T17:44:39.536Z,18.88
2023-05-19T17:47:13.077Z,21.27
2023-05-19T17:49:48.365Z,14.20
2023-05-19T17:52:22.483Z,12.73
2023-05-19T17:54:56.529Z,9.57
2023-05-19T17:57:33.254Z,10.18
2023-05-19T18:00:08.454Z,11.20
2023-05-19T18:02:42.543Z,9.45
2023-05-19T18:05:18.939Z,11.48
2023-05-19T18:07:52.957Z,9.35
2023-05-19T18:10:28.567Z,13.20
2023-05-19T18:13:02.071Z,11.40
2023-05-19T18:15:36.151Z,12.68
2023-05-19T18:18:10.954Z,10.73
2023-05-19T18:20:46.164Z,11.00
2023-05-19T18:23:20.548Z,10.35
2023-05-19T18:25:54.829Z,18.63
2023-05-19T18:28:29.699Z,10.98
2023-05-19T18:31:04.927Z,15.52
2023-05-19T18:33:38.477Z,10.07
2023-05-19T18:36:13.614Z,10.85
2023-05-19T18:38:47.977Z,11.65
2023-05-19T18:41:21.531Z,11.40
2023-05-19T18:43:55.238Z,13.30
2023-05-19T18:46:30.026Z,7.97
2023-05-19T18:49:04.404Z,10.07
2023-05-19T18:51:39.343Z,10.52
2023-05-19T18:54:12.956Z,12.50
2023-05-19T18:56:46.568Z,11.75
2023-05-19T18:59:20.272Z,10.32
2023-05-19T19:01:55.018Z,14.10
2023-05-19T19:04:28.696Z,14.27
2023-05-19T19:07:03.704Z,13.45
2023-05-19T19:09:37.256Z,12.93
2023-05-19T19:12:11.234Z,8.95
2023-05-19T19:14:44.827Z,12.07
2023-05-19T19:17:18.486Z,12.70
2023-05-19T19:19:52.460Z,12.70
2023-05-19T19:22:27.547Z,13.82
2023-05-19T19:25:01.127Z,16.25
2023-05-19T19:27:35.787Z,32.08
2023-05-19T19:30:10.887Z,27.90
2023-05-19T19:32:44.560Z,11.00
2023-05-19T19:35:18.388Z,11.57
2023-05-19T19:37:53.985Z,13.82
2023-05-19T19:40:29.304Z,15.50
2023-05-19T19:43:02.990Z,16.33
2023-05-19T19:45:39.177Z,14.30
2023-05-19T19:48:22.629Z,17.98
2023-05-19T19:50:56.440Z,14.25
2023-05-19T19:53:31.511Z,11.13
2023-05-19T19:56:07.312Z,13.30
2023-05-19T19:58:40.977Z,12.38
2023-05-19T20:01:27.869Z,10.93
2023-05-19T20:04:01.894Z,17.60
2023-05-19T20:06:37.114Z,15.88
2023-05-19T20:09:12.421Z,14.85
2023-05-19T20:11:45.990Z,15.07
2023-05-19T20:14:19.611Z,17.33
2023-05-19T20:16:53.182Z,18.08
2023-05-19T20:19:26.836Z,17.35
2023-05-19T20:22:00.655Z,11.57
2023-05-19T20:24:35.643Z,14.52
2023-05-19T20:27:11.094Z,16.55
2023-05-19T20:29:47.250Z,13.35
2023-05-19T20:32:20.830Z,14.32
2023-05-19T20:34:54.481Z,14.82
2023-05-19T20:37:27.989Z,12.82
2023-05-19T20:40:03.033Z,13.30
2023-05-19T20:42:36.727Z,16.67
2023-05-19T20:45:10.727Z,14.43
2023-05-19T20:47:44.253Z,12.75
2023-05-19T20:50:17.951Z,12.50
2023-05-19T20:52:51.563Z,17.65
2023-05-19T20:55:26.491Z,19.08
2023-05-19T20:58:00.037Z,13.15
2023-05-19T21:00:47.339Z,12.63
2023-05-19T21:03:24.602Z,15.15
2023-05-19T21:06:00.926Z,15.25
2023-05-19T21:08:34.497Z,14.80
2023-05-19T21:11:09.466Z,16.00
2023-05-19T21:13:43.437Z,12.35
2023-05-19T21:16:17.017Z,12.50
2023-05-19T21:18:50.657Z,15.77
2023-05-19T21:21:24.432Z,10.82
2023-05-19T21:23:57.998Z,14.93
2023-05-19T21:26:32.928Z,17.10
2023-05-19T21:29:06.581Z,14.93
2023-05-19T21:31:40.147Z,11.77
2023-05-19T21:34:13.717Z,12.52
2023-05-19T21:36:48.188Z,15.18
2023-05-19T21:39:23.415Z,11.93
2023-05-19T21:41:58.331Z,13.93
2023-05-19T21:44:32.528Z,13.15
2023-05-19T21:47:06.615Z,14.30
2023-05-19T21:49:40.755Z,12.50
2023-05-19T21:52:14.272Z,12.27
2023-05-19T21:54:47.928Z,15.63
2023-05-19T21:57:22.837Z,11.10
2023-05-19T21:59:56.318Z,13.00
2023-05-19T22:02:29.858Z,11.10
2023-05-19T22:05:03.539Z,10.18
2023-05-19T22:07:37.074Z,14.73
2023-05-19T22:10:11.586Z,11.55
2023-05-19T22:12:46.551Z,11.80
2023-05-19T22:15:20.314Z,10.43
2023-05-19T22:17:53.860Z,10.65
2023-05-19T22:20:27.438Z,10.35
2023-05-19T22:23:01.353Z,9.82
2023-05-19T22:25:34.980Z,11.55
2023-05-19T22:28:09.876Z,13.32
2023-05-19T22:30:44.220Z,13.77
2023-05-19T22:33:17.880Z,15.48
2023-05-19T22:35:51.435Z,12.32
2023-05-19T22:38:25.183Z,13.15
2023-05-19T22:40:58.691Z,12.32
2023-05-19T22:43:33.796Z,13.30
2023-05-19T22:46:07.389Z,16.80
2023-05-19T22:48:40.909Z,12.10
2023-05-19T22:51:14.455Z,8.20
2023-05-19T22:53:48.954Z,9.85
2023-05-19T22:56:22.734Z,13.77
2023-05-19T22:58:57.634Z,13.02
2023-05-19T23:01:31.272Z,11.32
2023-05-19T23:04:05.018Z,13.80
2023-05-19T23:06:38.537Z,12.80
2023-05-19T23:09:12.048Z,14.73
2023-05-19T23:11:46.169Z,11.07
2023-05-19T23:14:21.885Z,12.35
2023-05-19T23:16:55.549Z,13.52
2023-05-19T23:19:31.885Z,12.85
2023-05-19T23:22:05.676Z,12.38
2023-05-19T23:24:39.226Z,10.80
2023-05-19T23:27:12.797Z,12.48
2023-05-19T23:29:50.547Z,11.57
2023-05-19T23:32:24.092Z,12.82
2023-05-19T23:34:57.708Z,10.20
2023-05-19T23:37:31.268Z,13.10
2023-05-19T23:40:05.325Z,10.75
2023-05-19T23:42:38.905Z,15.57
2023-05-19T23:45:13.945Z,12.13
2023-05-19T23:47:47.502Z,10.48
2023-05-19T23:50:21.040Z,14.13
2023-05-19T23:52:54.618Z,13.43
2023-05-19T23:55:28.165Z,15.02
2023-05-19T23:58:02.053Z,11.07
